<?xml version="1.0" encoding="UTF-8"?>
<gpx xmlns="http://www.topografix.com/GPX/1/1" xmlns:xsi="http://www.w3.org/2001/XMLSchema-instance" version="1.1" xsi:schemaLocation="http://www.topografix.com/GPX/1/1 http://www.topografix.com/GPX/1/1/gpx.xsd">
  <metadata>
    <name>Blue Series Triathlon Holambra 2023</name>
  </metadata>
  <trk>
    <name>Blue Series Triathlon Holambra 2023</name>
    <trkseg>
      <trkpt lat="-22.638412" lon="-47.050043">
        <ele>596.815167</ele>
        <time>2023-12-17T09:30:00.000Z</time>
      </trkpt>
      <trkpt lat="-22.638432" lon="-47.049909">
        <ele>596.815168</ele>
        <time>2023-12-17T09:30:01.000Z</time>
      </trkpt>
      <trkpt lat="-22.638487" lon="-47.049767">
        <ele>596.815176</ele>
        <time>2023-12-17T09:30:03.000Z</time>
      </trkpt>
      <trkpt lat="-22.638555" lon="-47.049698">
        <ele>596.815172</ele>
        <time>2023-12-17T09:30:04.000Z</time>
      </trkpt>
      <trkpt lat="-22.638681" lon="-47.049611">
        <ele>596.81517</ele>
        <time>2023-12-17T09:30:06.000Z</time>
      </trkpt>
      <trkpt lat="-22.638779" lon="-47.049509">
        <ele>596.815164</ele>
        <time>2023-12-17T09:30:08.000Z</time>
      </trkpt>
      <trkpt lat="-22.638904" lon="-47.049248">
        <ele>596.81673</ele>
        <time>2023-12-17T09:30:11.000Z</time>
      </trkpt>
      <trkpt lat="-22.638906" lon="-47.049178">
        <ele>596.82569</ele>
        <time>2023-12-17T09:30:12.000Z</time>
      </trkpt>
      <trkpt lat="-22.638927" lon="-47.049093">
        <ele>596.834168</ele>
        <time>2023-12-17T09:30:13.000Z</time>
      </trkpt>
      <trkpt lat="-22.638921" lon="-47.048748">
        <ele>596.877138</ele>
        <time>2023-12-17T09:30:17.000Z</time>
      </trkpt>
      <trkpt lat="-22.638924" lon="-47.048508">
        <ele>596.904649</ele>
        <time>2023-12-17T09:30:19.000Z</time>
      </trkpt>
      <trkpt lat="-22.63923" lon="-47.047747">
        <ele>597.004331</ele>
        <time>2023-12-17T09:30:28.000Z</time>
      </trkpt>
      <trkpt lat="-22.639546" lon="-47.047073">
        <ele>597.37511</ele>
        <time>2023-12-17T09:30:36.000Z</time>
      </trkpt>
      <trkpt lat="-22.639885" lon="-47.046348">
        <ele>598.099573</ele>
        <time>2023-12-17T09:30:44.000Z</time>
      </trkpt>
      <trkpt lat="-22.64005" lon="-47.046132">
        <ele>598.333016</ele>
        <time>2023-12-17T09:30:47.000Z</time>
      </trkpt>
      <trkpt lat="-22.640254" lon="-47.045917">
        <ele>598.593224</ele>
        <time>2023-12-17T09:30:50.000Z</time>
      </trkpt>
      <trkpt lat="-22.640468" lon="-47.045691">
        <ele>599.068846</ele>
        <time>2023-12-17T09:30:53.000Z</time>
      </trkpt>
      <trkpt lat="-22.64124" lon="-47.044992">
        <ele>601.2161</ele>
        <time>2023-12-17T09:31:04.000Z</time>
      </trkpt>
      <trkpt lat="-22.641281" lon="-47.045001">
        <ele>601.305358</ele>
        <time>2023-12-17T09:31:04.000Z</time>
      </trkpt>
      <trkpt lat="-22.641325" lon="-47.04501">
        <ele>601.419469</ele>
        <time>2023-12-17T09:31:04.000Z</time>
      </trkpt>
      <trkpt lat="-22.641349" lon="-47.045004">
        <ele>601.484241</ele>
        <time>2023-12-17T09:31:04.000Z</time>
      </trkpt>
      <trkpt lat="-22.641395" lon="-47.044963">
        <ele>601.591164</ele>
        <time>2023-12-17T09:31:05.000Z</time>
      </trkpt>
      <trkpt lat="-22.64143" lon="-47.044801">
        <ele>601.927257</ele>
        <time>2023-12-17T09:31:07.000Z</time>
      </trkpt>
      <trkpt lat="-22.641424" lon="-47.044793">
        <ele>601.94562</ele>
        <time>2023-12-17T09:31:07.000Z</time>
      </trkpt>
      <trkpt lat="-22.64144" lon="-47.044791">
        <ele>601.949597</ele>
        <time>2023-12-17T09:31:07.000Z</time>
      </trkpt>
      <trkpt lat="-22.641442" lon="-47.044777">
        <ele>601.954102</ele>
        <time>2023-12-17T09:31:07.000Z</time>
      </trkpt>
      <trkpt lat="-22.641451" lon="-47.04473">
        <ele>602.070621</ele>
        <time>2023-12-17T09:31:07.000Z</time>
      </trkpt>
      <trkpt lat="-22.641406" lon="-47.044678">
        <ele>602.19039</ele>
        <time>2023-12-17T09:31:08.000Z</time>
      </trkpt>
      <trkpt lat="-22.643596" lon="-47.043049">
        <ele>612.119545</ele>
        <time>2023-12-17T09:31:38.000Z</time>
      </trkpt>
      <trkpt lat="-22.645637" lon="-47.04154">
        <ele>621.649981</ele>
        <time>2023-12-17T09:32:05.000Z</time>
      </trkpt>
      <trkpt lat="-22.646503" lon="-47.040867">
        <ele>623.634733</ele>
        <time>2023-12-17T09:32:17.000Z</time>
      </trkpt>
      <trkpt lat="-22.646789" lon="-47.040664">
        <ele>623.791272</ele>
        <time>2023-12-17T09:32:21.000Z</time>
      </trkpt>
      <trkpt lat="-22.64997" lon="-47.038267">
        <ele>620.096639</ele>
        <time>2023-12-17T09:33:04.000Z</time>
      </trkpt>
      <trkpt lat="-22.651464" lon="-47.037161">
        <ele>617.999206</ele>
        <time>2023-12-17T09:33:24.000Z</time>
      </trkpt>
      <trkpt lat="-22.652072" lon="-47.036644">
        <ele>617.037613</ele>
        <time>2023-12-17T09:33:33.000Z</time>
      </trkpt>
      <trkpt lat="-22.652316" lon="-47.036604">
        <ele>616.644386</ele>
        <time>2023-12-17T09:33:36.000Z</time>
      </trkpt>
      <trkpt lat="-22.652902" lon="-47.03663">
        <ele>615.682442</ele>
        <time>2023-12-17T09:33:43.000Z</time>
      </trkpt>
      <trkpt lat="-22.653123" lon="-47.036752">
        <ele>615.262842</ele>
        <time>2023-12-17T09:33:46.000Z</time>
      </trkpt>
      <trkpt lat="-22.653293" lon="-47.03685">
        <ele>614.951209</ele>
        <time>2023-12-17T09:33:48.000Z</time>
      </trkpt>
      <trkpt lat="-22.653421" lon="-47.037003">
        <ele>614.63923</ele>
        <time>2023-12-17T09:33:50.000Z</time>
      </trkpt>
      <trkpt lat="-22.653758" lon="-47.037465">
        <ele>612.709084</ele>
        <time>2023-12-17T09:33:56.000Z</time>
      </trkpt>
      <trkpt lat="-22.654077" lon="-47.037763">
        <ele>610.858852</ele>
        <time>2023-12-17T09:34:01.000Z</time>
      </trkpt>
      <trkpt lat="-22.654359" lon="-47.037981">
        <ele>609.428603</ele>
        <time>2023-12-17T09:34:05.000Z</time>
      </trkpt>
      <trkpt lat="-22.654559" lon="-47.038175">
        <ele>608.281481</ele>
        <time>2023-12-17T09:34:08.000Z</time>
      </trkpt>
      <trkpt lat="-22.655049" lon="-47.03901">
        <ele>604.590255</ele>
        <time>2023-12-17T09:34:18.000Z</time>
      </trkpt>
      <trkpt lat="-22.65624" lon="-47.040364">
        <ele>599.023865</ele>
        <time>2023-12-17T09:34:37.000Z</time>
      </trkpt>
      <trkpt lat="-22.656405" lon="-47.040489">
        <ele>598.801516</ele>
        <time>2023-12-17T09:34:39.000Z</time>
      </trkpt>
      <trkpt lat="-22.657348" lon="-47.041022">
        <ele>597.653339</ele>
        <time>2023-12-17T09:34:51.000Z</time>
      </trkpt>
      <trkpt lat="-22.657994" lon="-47.041321">
        <ele>598.935359</ele>
        <time>2023-12-17T09:34:59.000Z</time>
      </trkpt>
      <trkpt lat="-22.658269" lon="-47.041406">
        <ele>599.5022</ele>
        <time>2023-12-17T09:35:02.000Z</time>
      </trkpt>
      <trkpt lat="-22.658669" lon="-47.041491">
        <ele>600.313454</ele>
        <time>2023-12-17T09:35:07.000Z</time>
      </trkpt>
      <trkpt lat="-22.659015" lon="-47.041533">
        <ele>600.998115</ele>
        <time>2023-12-17T09:35:11.000Z</time>
      </trkpt>
      <trkpt lat="-22.660133" lon="-47.041622">
        <ele>602.151586</ele>
        <time>2023-12-17T09:35:23.000Z</time>
      </trkpt>
      <trkpt lat="-22.660457" lon="-47.041702">
        <ele>602.463629</ele>
        <time>2023-12-17T09:35:27.000Z</time>
      </trkpt>
      <trkpt lat="-22.660131" lon="-47.041619">
        <ele>602.775652</ele>
        <time>2023-12-17T09:35:31.000Z</time>
      </trkpt>
      <trkpt lat="-22.659006" lon="-47.041525">
        <ele>600.711744</ele>
        <time>2023-12-17T09:35:44.000Z</time>
      </trkpt>
      <trkpt lat="-22.658675" lon="-47.041503">
        <ele>599.971885</ele>
        <time>2023-12-17T09:35:48.000Z</time>
      </trkpt>
      <trkpt lat="-22.658278" lon="-47.041407">
        <ele>599.095244</ele>
        <time>2023-12-17T09:35:53.000Z</time>
      </trkpt>
      <trkpt lat="-22.657996" lon="-47.041316">
        <ele>598.835445</ele>
        <time>2023-12-17T09:35:56.000Z</time>
      </trkpt>
      <trkpt lat="-22.657361" lon="-47.041023">
        <ele>598.31965</ele>
        <time>2023-12-17T09:36:04.000Z</time>
      </trkpt>
      <trkpt lat="-22.656411" lon="-47.040493">
        <ele>598.286228</ele>
        <time>2023-12-17T09:36:16.000Z</time>
      </trkpt>
      <trkpt lat="-22.656249" lon="-47.040369">
        <ele>598.85764</ele>
        <time>2023-12-17T09:36:18.000Z</time>
      </trkpt>
      <trkpt lat="-22.655033" lon="-47.039009">
        <ele>604.375767</ele>
        <time>2023-12-17T09:36:37.000Z</time>
      </trkpt>
      <trkpt lat="-22.654553" lon="-47.038186">
        <ele>608.562165</ele>
        <time>2023-12-17T09:36:47.000Z</time>
      </trkpt>
      <trkpt lat="-22.654362" lon="-47.037982">
        <ele>609.828442</ele>
        <time>2023-12-17T09:36:50.000Z</time>
      </trkpt>
      <trkpt lat="-22.654079" lon="-47.037763">
        <ele>611.283033</ele>
        <time>2023-12-17T09:36:54.000Z</time>
      </trkpt>
      <trkpt lat="-22.653747" lon="-47.037465">
        <ele>612.558884</ele>
        <time>2023-12-17T09:36:59.000Z</time>
      </trkpt>
      <trkpt lat="-22.65342" lon="-47.036993">
        <ele>614.121908</ele>
        <time>2023-12-17T09:37:05.000Z</time>
      </trkpt>
      <trkpt lat="-22.653304" lon="-47.036849">
        <ele>614.67342</ele>
        <time>2023-12-17T09:37:07.000Z</time>
      </trkpt>
      <trkpt lat="-22.65313" lon="-47.036745">
        <ele>615.224294</ele>
        <time>2023-12-17T09:37:09.000Z</time>
      </trkpt>
      <trkpt lat="-22.652895" lon="-47.03664">
        <ele>615.966058</ele>
        <time>2023-12-17T09:37:12.000Z</time>
      </trkpt>
      <trkpt lat="-22.652323" lon="-47.036608">
        <ele>616.825101</ele>
        <time>2023-12-17T09:37:18.000Z</time>
      </trkpt>
      <trkpt lat="-22.652073" lon="-47.036649">
        <ele>617.08768</ele>
        <time>2023-12-17T09:37:21.000Z</time>
      </trkpt>
      <trkpt lat="-22.651464" lon="-47.037148">
        <ele>617.94267</ele>
        <time>2023-12-17T09:37:29.000Z</time>
      </trkpt>
      <trkpt lat="-22.649956" lon="-47.03827">
        <ele>620.082526</ele>
        <time>2023-12-17T09:37:49.000Z</time>
      </trkpt>
      <trkpt lat="-22.646785" lon="-47.040668">
        <ele>624.663319</ele>
        <time>2023-12-17T09:38:32.000Z</time>
      </trkpt>
      <trkpt lat="-22.646518" lon="-47.040876">
        <ele>623.967487</ele>
        <time>2023-12-17T09:38:36.000Z</time>
      </trkpt>
      <trkpt lat="-22.645634" lon="-47.041527">
        <ele>621.436303</ele>
        <time>2023-12-17T09:38:48.000Z</time>
      </trkpt>
      <trkpt lat="-22.643586" lon="-47.04305">
        <ele>612.148586</ele>
        <time>2023-12-17T09:39:16.000Z</time>
      </trkpt>
      <trkpt lat="-22.6414" lon="-47.044679">
        <ele>603.43876</ele>
        <time>2023-12-17T09:39:46.000Z</time>
      </trkpt>
      <trkpt lat="-22.641349" lon="-47.044661">
        <ele>603.292525</ele>
        <time>2023-12-17T09:39:47.000Z</time>
      </trkpt>
      <trkpt lat="-22.641262" lon="-47.044693">
        <ele>603.011394</ele>
        <time>2023-12-17T09:39:48.000Z</time>
      </trkpt>
      <trkpt lat="-22.641229" lon="-47.044565">
        <ele>602.683987</ele>
        <time>2023-12-17T09:39:49.000Z</time>
      </trkpt>
      <trkpt lat="-22.641011" lon="-47.044019">
        <ele>601.823967</ele>
        <time>2023-12-17T09:39:55.000Z</time>
      </trkpt>
      <trkpt lat="-22.640772" lon="-47.043552">
        <ele>602.375399</ele>
        <time>2023-12-17T09:40:00.000Z</time>
      </trkpt>
      <trkpt lat="-22.640727" lon="-47.04346">
        <ele>602.475824</ele>
        <time>2023-12-17T09:40:01.000Z</time>
      </trkpt>
      <trkpt lat="-22.640689" lon="-47.043357">
        <ele>602.592987</ele>
        <time>2023-12-17T09:40:02.000Z</time>
      </trkpt>
      <trkpt lat="-22.640666" lon="-47.043331">
        <ele>602.630926</ele>
        <time>2023-12-17T09:40:02.000Z</time>
      </trkpt>
      <trkpt lat="-22.640465" lon="-47.042916">
        <ele>603.110609</ele>
        <time>2023-12-17T09:40:07.000Z</time>
      </trkpt>
      <trkpt lat="-22.638723" lon="-47.039206">
        <ele>611.228539</ele>
        <time>2023-12-17T09:40:50.000Z</time>
      </trkpt>
      <trkpt lat="-22.638161" lon="-47.038529">
        <ele>612.53175</ele>
        <time>2023-12-17T09:40:59.000Z</time>
      </trkpt>
      <trkpt lat="-22.637231" lon="-47.037102">
        <ele>614.492244</ele>
        <time>2023-12-17T09:41:17.000Z</time>
      </trkpt>
      <trkpt lat="-22.636813" lon="-47.036442">
        <ele>615.10543</ele>
        <time>2023-12-17T09:41:25.000Z</time>
      </trkpt>
      <trkpt lat="-22.635787" lon="-47.034131">
        <ele>616.937184</ele>
        <time>2023-12-17T09:41:51.000Z</time>
      </trkpt>
      <trkpt lat="-22.635703" lon="-47.033876">
        <ele>616.886053</ele>
        <time>2023-12-17T09:41:54.000Z</time>
      </trkpt>
      <trkpt lat="-22.635593" lon="-47.03344">
        <ele>616.601839</ele>
        <time>2023-12-17T09:41:59.000Z</time>
      </trkpt>
      <trkpt lat="-22.635556" lon="-47.032748">
        <ele>616.161049</ele>
        <time>2023-12-17T09:42:06.000Z</time>
      </trkpt>
      <trkpt lat="-22.635257" lon="-47.031856">
        <ele>615.084783</ele>
        <time>2023-12-17T09:42:16.000Z</time>
      </trkpt>
      <trkpt lat="-22.635098" lon="-47.031472">
        <ele>614.219007</ele>
        <time>2023-12-17T09:42:20.000Z</time>
      </trkpt>
      <trkpt lat="-22.634668" lon="-47.030756">
        <ele>612.465421</ele>
        <time>2023-12-17T09:42:29.000Z</time>
      </trkpt>
      <trkpt lat="-22.634263" lon="-47.030077">
        <ele>611.395595</ele>
        <time>2023-12-17T09:42:37.000Z</time>
      </trkpt>
      <trkpt lat="-22.633579" lon="-47.029095">
        <ele>610.437542</ele>
        <time>2023-12-17T09:42:50.000Z</time>
      </trkpt>
      <trkpt lat="-22.634281" lon="-47.030083">
        <ele>611.521445</ele>
        <time>2023-12-17T09:43:03.000Z</time>
      </trkpt>
      <trkpt lat="-22.634675" lon="-47.030761">
        <ele>612.568603</ele>
        <time>2023-12-17T09:43:11.000Z</time>
      </trkpt>
      <trkpt lat="-22.63509" lon="-47.031473">
        <ele>614.085806</ele>
        <time>2023-12-17T09:43:20.000Z</time>
      </trkpt>
      <trkpt lat="-22.635251" lon="-47.031847">
        <ele>614.884848</ele>
        <time>2023-12-17T09:43:24.000Z</time>
      </trkpt>
      <trkpt lat="-22.635544" lon="-47.032739">
        <ele>616.518751</ele>
        <time>2023-12-17T09:43:34.000Z</time>
      </trkpt>
      <trkpt lat="-22.6356" lon="-47.033437">
        <ele>616.599739</ele>
        <time>2023-12-17T09:43:41.000Z</time>
      </trkpt>
      <trkpt lat="-22.635705" lon="-47.03386">
        <ele>616.651948</ele>
        <time>2023-12-17T09:43:45.000Z</time>
      </trkpt>
      <trkpt lat="-22.635797" lon="-47.034147">
        <ele>616.685605</ele>
        <time>2023-12-17T09:43:48.000Z</time>
      </trkpt>
      <trkpt lat="-22.636817" lon="-47.036443">
        <ele>615.114576</ele>
        <time>2023-12-17T09:44:14.000Z</time>
      </trkpt>
      <trkpt lat="-22.637227" lon="-47.037104">
        <ele>614.461279</ele>
        <time>2023-12-17T09:44:22.000Z</time>
      </trkpt>
      <trkpt lat="-22.638164" lon="-47.038547">
        <ele>612.489047</ele>
        <time>2023-12-17T09:44:40.000Z</time>
      </trkpt>
      <trkpt lat="-22.638723" lon="-47.039196">
        <ele>611.166814</ele>
        <time>2023-12-17T09:44:49.000Z</time>
      </trkpt>
      <trkpt lat="-22.640449" lon="-47.042916">
        <ele>602.628457</ele>
        <time>2023-12-17T09:45:32.000Z</time>
      </trkpt>
      <trkpt lat="-22.640662" lon="-47.04333">
        <ele>601.949672</ele>
        <time>2023-12-17T09:45:37.000Z</time>
      </trkpt>
      <trkpt lat="-22.640689" lon="-47.043369">
        <ele>601.896008</ele>
        <time>2023-12-17T09:45:38.000Z</time>
      </trkpt>
      <trkpt lat="-22.640725" lon="-47.043458">
        <ele>601.730219</ele>
        <time>2023-12-17T09:45:39.000Z</time>
      </trkpt>
      <trkpt lat="-22.640774" lon="-47.043549">
        <ele>601.588105</ele>
        <time>2023-12-17T09:45:40.000Z</time>
      </trkpt>
      <trkpt lat="-22.641021" lon="-47.04403">
        <ele>600.807785</ele>
        <time>2023-12-17T09:45:46.000Z</time>
      </trkpt>
      <trkpt lat="-22.641223" lon="-47.04457">
        <ele>599.962863</ele>
        <time>2023-12-17T09:45:52.000Z</time>
      </trkpt>
      <trkpt lat="-22.641262" lon="-47.044703">
        <ele>599.774252</ele>
        <time>2023-12-17T09:45:53.000Z</time>
      </trkpt>
      <trkpt lat="-22.641223" lon="-47.044852">
        <ele>599.591058</ele>
        <time>2023-12-17T09:45:55.000Z</time>
      </trkpt>
      <trkpt lat="-22.639962" lon="-47.04605">
        <ele>597.365342</ele>
        <time>2023-12-17T09:46:14.000Z</time>
      </trkpt>
      <trkpt lat="-22.639827" lon="-47.046278">
        <ele>597.060626</ele>
        <time>2023-12-17T09:46:17.000Z</time>
      </trkpt>
      <trkpt lat="-22.63927" lon="-47.04741">
        <ele>595.673243</ele>
        <time>2023-12-17T09:46:30.000Z</time>
      </trkpt>
      <trkpt lat="-22.638717" lon="-47.048701">
        <ele>595.239285</ele>
        <time>2023-12-17T09:46:45.000Z</time>
      </trkpt>
      <trkpt lat="-22.638708" lon="-47.048732">
        <ele>595.237191</ele>
        <time>2023-12-17T09:46:45.000Z</time>
      </trkpt>
      <trkpt lat="-22.638587" lon="-47.049057">
        <ele>595.211118</ele>
        <time>2023-12-17T09:46:49.000Z</time>
      </trkpt>
      <trkpt lat="-22.63842" lon="-47.049626">
        <ele>595.269057</ele>
        <time>2023-12-17T09:46:55.000Z</time>
      </trkpt>
      <trkpt lat="-22.638436" lon="-47.049665">
        <ele>595.299634</ele>
        <time>2023-12-17T09:46:55.000Z</time>
      </trkpt>
      <trkpt lat="-22.638429" lon="-47.049665">
        <ele>595.302988</ele>
        <time>2023-12-17T09:46:55.000Z</time>
      </trkpt>
      <trkpt lat="-22.638441" lon="-47.049689">
        <ele>595.315775</ele>
        <time>2023-12-17T09:46:55.000Z</time>
      </trkpt>
      <trkpt lat="-22.638447" lon="-47.049689">
        <ele>595.324569</ele>
        <time>2023-12-17T09:46:55.000Z</time>
      </trkpt>
      <trkpt lat="-22.638504" lon="-47.049717">
        <ele>595.372432</ele>
        <time>2023-12-17T09:46:56.000Z</time>
      </trkpt>
      <trkpt lat="-22.638564" lon="-47.049705">
        <ele>595.41084</ele>
        <time>2023-12-17T09:46:57.000Z</time>
      </trkpt>
      <trkpt lat="-22.638681" lon="-47.049613">
        <ele>595.533402</ele>
        <time>2023-12-17T09:46:59.000Z</time>
      </trkpt>
      <trkpt lat="-22.638775" lon="-47.049507">
        <ele>595.648834</ele>
        <time>2023-12-17T09:47:01.000Z</time>
      </trkpt>
      <trkpt lat="-22.638908" lon="-47.04924">
        <ele>595.86211</ele>
        <time>2023-12-17T09:47:04.000Z</time>
      </trkpt>
      <trkpt lat="-22.638901" lon="-47.049176">
        <ele>595.917145</ele>
        <time>2023-12-17T09:47:05.000Z</time>
      </trkpt>
      <trkpt lat="-22.638926" lon="-47.049092">
        <ele>595.969257</ele>
        <time>2023-12-17T09:47:06.000Z</time>
      </trkpt>
      <trkpt lat="-22.638907" lon="-47.048733">
        <ele>596.233235</ele>
        <time>2023-12-17T09:47:10.000Z</time>
      </trkpt>
      <trkpt lat="-22.638921" lon="-47.048513">
        <ele>596.402265</ele>
        <time>2023-12-17T09:47:12.000Z</time>
      </trkpt>
      <trkpt lat="-22.639235" lon="-47.047747">
        <ele>596.948325</ele>
        <time>2023-12-17T09:47:21.000Z</time>
      </trkpt>
      <trkpt lat="-22.639547" lon="-47.047072">
        <ele>597.409282</ele>
        <time>2023-12-17T09:47:29.000Z</time>
      </trkpt>
      <trkpt lat="-22.639898" lon="-47.046336">
        <ele>598.035719</ele>
        <time>2023-12-17T09:47:38.000Z</time>
      </trkpt>
      <trkpt lat="-22.640036" lon="-47.046128">
        <ele>598.369486</ele>
        <time>2023-12-17T09:47:41.000Z</time>
      </trkpt>
      <trkpt lat="-22.640254" lon="-47.045925">
        <ele>598.741536</ele>
        <time>2023-12-17T09:47:44.000Z</time>
      </trkpt>
      <trkpt lat="-22.640477" lon="-47.0457">
        <ele>599.158002</ele>
        <time>2023-12-17T09:47:47.000Z</time>
      </trkpt>
      <trkpt lat="-22.641224" lon="-47.044992">
        <ele>600.890357</ele>
        <time>2023-12-17T09:47:58.000Z</time>
      </trkpt>
      <trkpt lat="-22.641266" lon="-47.044997">
        <ele>601.026814</ele>
        <time>2023-12-17T09:47:58.000Z</time>
      </trkpt>
      <trkpt lat="-22.641328" lon="-47.045007">
        <ele>601.201289</ele>
        <time>2023-12-17T09:47:59.000Z</time>
      </trkpt>
      <trkpt lat="-22.641349" lon="-47.045004">
        <ele>601.30033</ele>
        <time>2023-12-17T09:47:59.000Z</time>
      </trkpt>
      <trkpt lat="-22.641394" lon="-47.044968">
        <ele>601.463809</ele>
        <time>2023-12-17T09:48:00.000Z</time>
      </trkpt>
      <trkpt lat="-22.641434" lon="-47.044803">
        <ele>601.977641</ele>
        <time>2023-12-17T09:48:02.000Z</time>
      </trkpt>
      <trkpt lat="-22.64143" lon="-47.044786">
        <ele>602.005729</ele>
        <time>2023-12-17T09:48:02.000Z</time>
      </trkpt>
      <trkpt lat="-22.641425" lon="-47.044784">
        <ele>602.011796</ele>
        <time>2023-12-17T09:48:02.000Z</time>
      </trkpt>
      <trkpt lat="-22.641443" lon="-47.04479">
        <ele>602.018696</ele>
        <time>2023-12-17T09:48:02.000Z</time>
      </trkpt>
      <trkpt lat="-22.641445" lon="-47.044736">
        <ele>602.196843</ele>
        <time>2023-12-17T09:48:03.000Z</time>
      </trkpt>
      <trkpt lat="-22.641407" lon="-47.044687">
        <ele>602.379953</ele>
        <time>2023-12-17T09:48:04.000Z</time>
      </trkpt>
      <trkpt lat="-22.643587" lon="-47.043054">
        <ele>612.092107</ele>
        <time>2023-12-17T09:48:33.000Z</time>
      </trkpt>
      <trkpt lat="-22.645637" lon="-47.041524">
        <ele>621.458427</ele>
        <time>2023-12-17T09:49:01.000Z</time>
      </trkpt>
      <trkpt lat="-22.646506" lon="-47.040865">
        <ele>623.918183</ele>
        <time>2023-12-17T09:49:13.000Z</time>
      </trkpt>
      <trkpt lat="-22.646786" lon="-47.040668">
        <ele>624.671339</ele>
        <time>2023-12-17T09:49:17.000Z</time>
      </trkpt>
      <trkpt lat="-22.649965" lon="-47.03826">
        <ele>620.079691</ele>
        <time>2023-12-17T09:50:00.000Z</time>
      </trkpt>
      <trkpt lat="-22.651453" lon="-47.037165">
        <ele>617.941</ele>
        <time>2023-12-17T09:50:20.000Z</time>
      </trkpt>
      <trkpt lat="-22.65209" lon="-47.036658">
        <ele>617.078726</ele>
        <time>2023-12-17T09:50:29.000Z</time>
      </trkpt>
      <trkpt lat="-22.652308" lon="-47.036601">
        <ele>616.813926</ele>
        <time>2023-12-17T09:50:31.000Z</time>
      </trkpt>
      <trkpt lat="-22.652889" lon="-47.036627">
        <ele>616.009871</ele>
        <time>2023-12-17T09:50:37.000Z</time>
      </trkpt>
      <trkpt lat="-22.653127" lon="-47.036746">
        <ele>615.253667</ele>
        <time>2023-12-17T09:50:40.000Z</time>
      </trkpt>
      <trkpt lat="-22.653299" lon="-47.03685">
        <ele>614.692052</ele>
        <time>2023-12-17T09:50:42.000Z</time>
      </trkpt>
      <trkpt lat="-22.653434" lon="-47.036987">
        <ele>614.12981</ele>
        <time>2023-12-17T09:50:44.000Z</time>
      </trkpt>
      <trkpt lat="-22.653764" lon="-47.037465">
        <ele>612.536324</ele>
        <time>2023-12-17T09:50:50.000Z</time>
      </trkpt>
      <trkpt lat="-22.654087" lon="-47.03776">
        <ele>611.235618</ele>
        <time>2023-12-17T09:50:55.000Z</time>
      </trkpt>
      <trkpt lat="-22.654371" lon="-47.037966">
        <ele>609.838816</ele>
        <time>2023-12-17T09:50:59.000Z</time>
      </trkpt>
      <trkpt lat="-22.654559" lon="-47.038174">
        <ele>608.574385</ele>
        <time>2023-12-17T09:51:02.000Z</time>
      </trkpt>
      <trkpt lat="-22.655045" lon="-47.039009">
        <ele>604.394176</ele>
        <time>2023-12-17T09:51:12.000Z</time>
      </trkpt>
      <trkpt lat="-22.656243" lon="-47.04037">
        <ele>598.890008</ele>
        <time>2023-12-17T09:51:31.000Z</time>
      </trkpt>
      <trkpt lat="-22.656402" lon="-47.040489">
        <ele>598.33057</ele>
        <time>2023-12-17T09:51:33.000Z</time>
      </trkpt>
      <trkpt lat="-22.65736" lon="-47.041027">
        <ele>598.309436</ele>
        <time>2023-12-17T09:51:45.000Z</time>
      </trkpt>
      <trkpt lat="-22.657989" lon="-47.041324">
        <ele>598.873415</ele>
        <time>2023-12-17T09:51:53.000Z</time>
      </trkpt>
      <trkpt lat="-22.658267" lon="-47.041413">
        <ele>599.103664</ele>
        <time>2023-12-17T09:51:56.000Z</time>
      </trkpt>
      <trkpt lat="-22.658664" lon="-47.041501">
        <ele>599.968218</ele>
        <time>2023-12-17T09:52:01.000Z</time>
      </trkpt>
      <trkpt lat="-22.659016" lon="-47.04153">
        <ele>600.698523</ele>
        <time>2023-12-17T09:52:05.000Z</time>
      </trkpt>
      <trkpt lat="-22.660131" lon="-47.041617">
        <ele>602.839492</ele>
        <time>2023-12-17T09:52:17.000Z</time>
      </trkpt>
      <trkpt lat="-22.660454" lon="-47.041713">
        <ele>602.510605</ele>
        <time>2023-12-17T09:52:21.000Z</time>
      </trkpt>
      <trkpt lat="-22.660455" lon="-47.041704">
        <ele>602.507503</ele>
        <time>2023-12-17T09:52:21.000Z</time>
      </trkpt>
      <trkpt lat="-22.660452" lon="-47.041705">
        <ele>602.504379</ele>
        <time>2023-12-17T09:52:21.000Z</time>
      </trkpt>
      <trkpt lat="-22.660458" lon="-47.041698">
        <ele>602.501269</ele>
        <time>2023-12-17T09:52:21.000Z</time>
      </trkpt>
      <trkpt lat="-22.660448" lon="-47.041715">
        <ele>602.498167</ele>
        <time>2023-12-17T09:52:21.000Z</time>
      </trkpt>
      <trkpt lat="-22.660139" lon="-47.041618">
        <ele>602.169283</ele>
        <time>2023-12-17T09:52:25.000Z</time>
      </trkpt>
      <trkpt lat="-22.659018" lon="-47.041522">
        <ele>600.988237</ele>
        <time>2023-12-17T09:52:38.000Z</time>
      </trkpt>
      <trkpt lat="-22.658676" lon="-47.041499">
        <ele>600.311555</ele>
        <time>2023-12-17T09:52:42.000Z</time>
      </trkpt>
      <trkpt lat="-22.658267" lon="-47.041407">
        <ele>599.509746</ele>
        <time>2023-12-17T09:52:47.000Z</time>
      </trkpt>
      <trkpt lat="-22.657992" lon="-47.041324">
        <ele>598.949506</ele>
        <time>2023-12-17T09:52:50.000Z</time>
      </trkpt>
      <trkpt lat="-22.657361" lon="-47.041025">
        <ele>597.613344</ele>
        <time>2023-12-17T09:52:58.000Z</time>
      </trkpt>
      <trkpt lat="-22.656413" lon="-47.040493">
        <ele>598.809924</ele>
        <time>2023-12-17T09:53:10.000Z</time>
      </trkpt>
      <trkpt lat="-22.656231" lon="-47.040361">
        <ele>599.041642</ele>
        <time>2023-12-17T09:53:12.000Z</time>
      </trkpt>
      <trkpt lat="-22.655039" lon="-47.039003">
        <ele>604.594725</ele>
        <time>2023-12-17T09:53:31.000Z</time>
      </trkpt>
      <trkpt lat="-22.654558" lon="-47.038181">
        <ele>608.288009</ele>
        <time>2023-12-17T09:53:41.000Z</time>
      </trkpt>
      <trkpt lat="-22.654368" lon="-47.037972">
        <ele>609.428012</ele>
        <time>2023-12-17T09:53:44.000Z</time>
      </trkpt>
      <trkpt lat="-22.654082" lon="-47.037771">
        <ele>610.849393</ele>
        <time>2023-12-17T09:53:48.000Z</time>
      </trkpt>
      <trkpt lat="-22.653748" lon="-47.03746">
        <ele>612.688154</ele>
        <time>2023-12-17T09:53:53.000Z</time>
      </trkpt>
      <trkpt lat="-22.65342" lon="-47.036991">
        <ele>614.663838</ele>
        <time>2023-12-17T09:53:59.000Z</time>
      </trkpt>
      <trkpt lat="-22.653297" lon="-47.036848">
        <ele>614.971448</ele>
        <time>2023-12-17T09:54:01.000Z</time>
      </trkpt>
      <trkpt lat="-22.653135" lon="-47.036753">
        <ele>615.278684</ele>
        <time>2023-12-17T09:54:03.000Z</time>
      </trkpt>
      <trkpt lat="-22.652904" lon="-47.036631">
        <ele>615.692389</ele>
        <time>2023-12-17T09:54:06.000Z</time>
      </trkpt>
      <trkpt lat="-22.652312" lon="-47.036608">
        <ele>616.640788</ele>
        <time>2023-12-17T09:54:13.000Z</time>
      </trkpt>
      <trkpt lat="-22.652087" lon="-47.036644">
        <ele>617.028487</ele>
        <time>2023-12-17T09:54:16.000Z</time>
      </trkpt>
      <trkpt lat="-22.651452" lon="-47.037157">
        <ele>617.99891</ele>
        <time>2023-12-17T09:54:25.000Z</time>
      </trkpt>
      <trkpt lat="-22.649958" lon="-47.038266">
        <ele>620.095434</ele>
        <time>2023-12-17T09:54:45.000Z</time>
      </trkpt>
      <trkpt lat="-22.646777" lon="-47.040675">
        <ele>623.789253</ele>
        <time>2023-12-17T09:55:28.000Z</time>
      </trkpt>
      <trkpt lat="-22.646506" lon="-47.040873">
        <ele>623.615715</ele>
        <time>2023-12-17T09:55:32.000Z</time>
      </trkpt>
      <trkpt lat="-22.645631" lon="-47.041539">
        <ele>621.663711</ele>
        <time>2023-12-17T09:55:44.000Z</time>
      </trkpt>
      <trkpt lat="-22.643599" lon="-47.043059">
        <ele>612.201969</ele>
        <time>2023-12-17T09:56:11.000Z</time>
      </trkpt>
      <trkpt lat="-22.641402" lon="-47.044683">
        <ele>603.069572</ele>
        <time>2023-12-17T09:56:41.000Z</time>
      </trkpt>
      <trkpt lat="-22.641353" lon="-47.044659">
        <ele>603.034579</ele>
        <time>2023-12-17T09:56:42.000Z</time>
      </trkpt>
      <trkpt lat="-22.641247" lon="-47.044708">
        <ele>602.967313</ele>
        <time>2023-12-17T09:56:43.000Z</time>
      </trkpt>
      <trkpt lat="-22.641232" lon="-47.044559">
        <ele>602.888963</ele>
        <time>2023-12-17T09:56:45.000Z</time>
      </trkpt>
      <trkpt lat="-22.641019" lon="-47.044026">
        <ele>602.555095</ele>
        <time>2023-12-17T09:56:51.000Z</time>
      </trkpt>
      <trkpt lat="-22.64078" lon="-47.043554">
        <ele>602.246765</ele>
        <time>2023-12-17T09:56:57.000Z</time>
      </trkpt>
      <trkpt lat="-22.640727" lon="-47.043472">
        <ele>602.190604</ele>
        <time>2023-12-17T09:56:58.000Z</time>
      </trkpt>
      <trkpt lat="-22.640688" lon="-47.04337">
        <ele>602.1251</ele>
        <time>2023-12-17T09:56:59.000Z</time>
      </trkpt>
      <trkpt lat="-22.64066" lon="-47.043329">
        <ele>602.103878</ele>
        <time>2023-12-17T09:57:00.000Z</time>
      </trkpt>
      <trkpt lat="-22.64046" lon="-47.042919">
        <ele>602.841805</ele>
        <time>2023-12-17T09:57:05.000Z</time>
      </trkpt>
      <trkpt lat="-22.638705" lon="-47.039195">
        <ele>611.075349</ele>
        <time>2023-12-17T09:57:48.000Z</time>
      </trkpt>
      <trkpt lat="-22.638166" lon="-47.038535">
        <ele>612.569378</ele>
        <time>2023-12-17T09:57:57.000Z</time>
      </trkpt>
      <trkpt lat="-22.637227" lon="-47.037096">
        <ele>614.453592</ele>
        <time>2023-12-17T09:58:15.000Z</time>
      </trkpt>
      <trkpt lat="-22.636817" lon="-47.036444">
        <ele>615.135215</ele>
        <time>2023-12-17T09:58:23.000Z</time>
      </trkpt>
      <trkpt lat="-22.635786" lon="-47.03414">
        <ele>616.633334</ele>
        <time>2023-12-17T09:58:49.000Z</time>
      </trkpt>
      <trkpt lat="-22.635699" lon="-47.033866">
        <ele>616.698063</ele>
        <time>2023-12-17T09:58:52.000Z</time>
      </trkpt>
      <trkpt lat="-22.635603" lon="-47.033425">
        <ele>616.798525</ele>
        <time>2023-12-17T09:58:57.000Z</time>
      </trkpt>
      <trkpt lat="-22.635544" lon="-47.03274">
        <ele>616.37169</ele>
        <time>2023-12-17T09:59:04.000Z</time>
      </trkpt>
      <trkpt lat="-22.635252" lon="-47.031857">
        <ele>614.824795</ele>
        <time>2023-12-17T09:59:14.000Z</time>
      </trkpt>
      <trkpt lat="-22.635102" lon="-47.031471">
        <ele>614.141769</ele>
        <time>2023-12-17T09:59:18.000Z</time>
      </trkpt>
      <trkpt lat="-22.634676" lon="-47.030752">
        <ele>612.725529</ele>
        <time>2023-12-17T09:59:27.000Z</time>
      </trkpt>
      <trkpt lat="-22.634276" lon="-47.030086">
        <ele>611.378534</ele>
        <time>2023-12-17T09:59:35.000Z</time>
      </trkpt>
      <trkpt lat="-22.63357" lon="-47.029102">
        <ele>610.648844</ele>
        <time>2023-12-17T09:59:48.000Z</time>
      </trkpt>
      <trkpt lat="-22.633566" lon="-47.029095">
        <ele>610.649333</ele>
        <time>2023-12-17T09:59:48.000Z</time>
      </trkpt>
      <trkpt lat="-22.633566" lon="-47.02911">
        <ele>610.649839</ele>
        <time>2023-12-17T09:59:48.000Z</time>
      </trkpt>
      <trkpt lat="-22.634263" lon="-47.030074">
        <ele>611.069447</ele>
        <time>2023-12-17T10:00:01.000Z</time>
      </trkpt>
      <trkpt lat="-22.634671" lon="-47.030755">
        <ele>612.616277</ele>
        <time>2023-12-17T10:00:09.000Z</time>
      </trkpt>
      <trkpt lat="-22.635092" lon="-47.031461">
        <ele>614.319194</ele>
        <time>2023-12-17T10:00:18.000Z</time>
      </trkpt>
      <trkpt lat="-22.635264" lon="-47.031839">
        <ele>615.081634</ele>
        <time>2023-12-17T10:00:22.000Z</time>
      </trkpt>
      <trkpt lat="-22.635545" lon="-47.032736">
        <ele>616.104949</ele>
        <time>2023-12-17T10:00:32.000Z</time>
      </trkpt>
      <trkpt lat="-22.635601" lon="-47.033437">
        <ele>616.853406</ele>
        <time>2023-12-17T10:00:39.000Z</time>
      </trkpt>
      <trkpt lat="-22.6357" lon="-47.033861">
        <ele>616.962567</ele>
        <time>2023-12-17T10:00:43.000Z</time>
      </trkpt>
      <trkpt lat="-22.635785" lon="-47.034148">
        <ele>616.797796</ele>
        <time>2023-12-17T10:00:46.000Z</time>
      </trkpt>
      <trkpt lat="-22.636818" lon="-47.036444">
        <ele>615.12062</ele>
        <time>2023-12-17T10:01:12.000Z</time>
      </trkpt>
      <trkpt lat="-22.637232" lon="-47.037086">
        <ele>614.518827</ele>
        <time>2023-12-17T10:01:20.000Z</time>
      </trkpt>
      <trkpt lat="-22.638166" lon="-47.038534">
        <ele>612.649367</ele>
        <time>2023-12-17T10:01:38.000Z</time>
      </trkpt>
      <trkpt lat="-22.638721" lon="-47.039204">
        <ele>611.124809</ele>
        <time>2023-12-17T10:01:47.000Z</time>
      </trkpt>
      <trkpt lat="-22.640449" lon="-47.042914">
        <ele>602.823268</ele>
        <time>2023-12-17T10:02:30.000Z</time>
      </trkpt>
      <trkpt lat="-22.640669" lon="-47.043333">
        <ele>601.979057</ele>
        <time>2023-12-17T10:02:35.000Z</time>
      </trkpt>
      <trkpt lat="-22.640689" lon="-47.043361">
        <ele>601.912292</ele>
        <time>2023-12-17T10:02:35.000Z</time>
      </trkpt>
      <trkpt lat="-22.640731" lon="-47.043471">
        <ele>601.706108</ele>
        <time>2023-12-17T10:02:36.000Z</time>
      </trkpt>
      <trkpt lat="-22.640776" lon="-47.043546">
        <ele>601.529343</ele>
        <time>2023-12-17T10:02:37.000Z</time>
      </trkpt>
      <trkpt lat="-22.641015" lon="-47.044035">
        <ele>600.70069</ele>
        <time>2023-12-17T10:02:43.000Z</time>
      </trkpt>
      <trkpt lat="-22.641237" lon="-47.044562">
        <ele>599.972717</ele>
        <time>2023-12-17T10:02:49.000Z</time>
      </trkpt>
      <trkpt lat="-22.641262" lon="-47.044709">
        <ele>599.801882</ele>
        <time>2023-12-17T10:02:51.000Z</time>
      </trkpt>
      <trkpt lat="-22.641222" lon="-47.044838">
        <ele>599.617683</ele>
        <time>2023-12-17T10:02:52.000Z</time>
      </trkpt>
      <trkpt lat="-22.639978" lon="-47.046048">
        <ele>597.328007</ele>
        <time>2023-12-17T10:03:11.000Z</time>
      </trkpt>
      <trkpt lat="-22.639832" lon="-47.046293">
        <ele>596.966099</ele>
        <time>2023-12-17T10:03:14.000Z</time>
      </trkpt>
      <trkpt lat="-22.639272" lon="-47.047411">
        <ele>595.790298</ele>
        <time>2023-12-17T10:03:27.000Z</time>
      </trkpt>
      <trkpt lat="-22.638726" lon="-47.048699">
        <ele>595.138026</ele>
        <time>2023-12-17T10:03:42.000Z</time>
      </trkpt>
      <trkpt lat="-22.638706" lon="-47.048732">
        <ele>595.149044</ele>
        <time>2023-12-17T10:03:42.000Z</time>
      </trkpt>
      <trkpt lat="-22.638595" lon="-47.049046">
        <ele>595.285819</ele>
        <time>2023-12-17T10:03:45.000Z</time>
      </trkpt>
      <trkpt lat="-22.638407" lon="-47.049642">
        <ele>595.524587</ele>
        <time>2023-12-17T10:03:51.000Z</time>
      </trkpt>
      <trkpt lat="-22.638428" lon="-47.049672">
        <ele>595.540824</ele>
        <time>2023-12-17T10:03:51.000Z</time>
      </trkpt>
      <trkpt lat="-22.638431" lon="-47.049681">
        <ele>595.542612</ele>
        <time>2023-12-17T10:03:51.000Z</time>
      </trkpt>
      <trkpt lat="-22.638444" lon="-47.049686">
        <ele>595.549388</ele>
        <time>2023-12-17T10:03:51.000Z</time>
      </trkpt>
      <trkpt lat="-22.638455" lon="-47.049693">
        <ele>595.554067</ele>
        <time>2023-12-17T10:03:51.000Z</time>
      </trkpt>
      <trkpt lat="-22.638513" lon="-47.04971">
        <ele>595.579475</ele>
        <time>2023-12-17T10:03:52.000Z</time>
      </trkpt>
      <trkpt lat="-22.63855" lon="-47.0497">
        <ele>595.599867</ele>
        <time>2023-12-17T10:03:52.000Z</time>
      </trkpt>
      <trkpt lat="-22.638689" lon="-47.049618">
        <ele>595.664961</ele>
        <time>2023-12-17T10:03:54.000Z</time>
      </trkpt>
      <trkpt lat="-22.638785" lon="-47.049512">
        <ele>595.726255</ele>
        <time>2023-12-17T10:03:56.000Z</time>
      </trkpt>
      <trkpt lat="-22.63891" lon="-47.049244">
        <ele>595.839506</ele>
        <time>2023-12-17T10:03:59.000Z</time>
      </trkpt>
      <trkpt lat="-22.638907" lon="-47.049174">
        <ele>595.868725</ele>
        <time>2023-12-17T10:04:00.000Z</time>
      </trkpt>
      <trkpt lat="-22.638925" lon="-47.049099">
        <ele>595.911227</ele>
        <time>2023-12-17T10:04:01.000Z</time>
      </trkpt>
      <trkpt lat="-22.638918" lon="-47.048744">
        <ele>596.135019</ele>
        <time>2023-12-17T10:04:05.000Z</time>
      </trkpt>
      <trkpt lat="-22.63892" lon="-47.048521">
        <ele>596.278323</ele>
        <time>2023-12-17T10:04:07.000Z</time>
      </trkpt>
      <trkpt lat="-22.639229" lon="-47.047757">
        <ele>596.797367</ele>
        <time>2023-12-17T10:04:16.000Z</time>
      </trkpt>
      <trkpt lat="-22.639545" lon="-47.047081">
        <ele>597.343266</ele>
        <time>2023-12-17T10:04:24.000Z</time>
      </trkpt>
      <trkpt lat="-22.639883" lon="-47.046337">
        <ele>598.097216</ele>
        <time>2023-12-17T10:04:33.000Z</time>
      </trkpt>
      <trkpt lat="-22.640035" lon="-47.046121">
        <ele>598.34014</ele>
        <time>2023-12-17T10:04:36.000Z</time>
      </trkpt>
      <trkpt lat="-22.64025" lon="-47.045924">
        <ele>598.610948</ele>
        <time>2023-12-17T10:04:39.000Z</time>
      </trkpt>
      <trkpt lat="-22.640478" lon="-47.045702">
        <ele>598.996796</ele>
        <time>2023-12-17T10:04:42.000Z</time>
      </trkpt>
      <trkpt lat="-22.641236" lon="-47.044999">
        <ele>601.247261</ele>
        <time>2023-12-17T10:04:53.000Z</time>
      </trkpt>
      <trkpt lat="-22.641275" lon="-47.045005">
        <ele>601.340794</ele>
        <time>2023-12-17T10:04:53.000Z</time>
      </trkpt>
      <trkpt lat="-22.641326" lon="-47.045007">
        <ele>601.460408</ele>
        <time>2023-12-17T10:04:54.000Z</time>
      </trkpt>
      <trkpt lat="-22.641346" lon="-47.045002">
        <ele>601.528299</ele>
        <time>2023-12-17T10:04:54.000Z</time>
      </trkpt>
      <trkpt lat="-22.641401" lon="-47.044971">
        <ele>601.640356</ele>
        <time>2023-12-17T10:04:55.000Z</time>
      </trkpt>
      <trkpt lat="-22.641427" lon="-47.044792">
        <ele>601.992593</ele>
        <time>2023-12-17T10:04:57.000Z</time>
      </trkpt>
      <trkpt lat="-22.641428" lon="-47.044798">
        <ele>602.011844</ele>
        <time>2023-12-17T10:04:57.000Z</time>
      </trkpt>
      <trkpt lat="-22.641437" lon="-47.044783">
        <ele>602.016003</ele>
        <time>2023-12-17T10:04:57.000Z</time>
      </trkpt>
      <trkpt lat="-22.641434" lon="-47.044784">
        <ele>602.020741</ele>
        <time>2023-12-17T10:04:57.000Z</time>
      </trkpt>
      <trkpt lat="-22.641448" lon="-47.044727">
        <ele>602.142853</ele>
        <time>2023-12-17T10:04:58.000Z</time>
      </trkpt>
      <trkpt lat="-22.641409" lon="-47.044693">
        <ele>602.268382</ele>
        <time>2023-12-17T10:04:59.000Z</time>
      </trkpt>
      <trkpt lat="-22.643588" lon="-47.043055">
        <ele>612.114698</ele>
        <time>2023-12-17T10:05:29.000Z</time>
      </trkpt>
      <trkpt lat="-22.645632" lon="-47.041539">
        <ele>621.598801</ele>
        <time>2023-12-17T10:05:57.000Z</time>
      </trkpt>
      <trkpt lat="-22.646512" lon="-47.040866">
        <ele>623.282233</ele>
        <time>2023-12-17T10:06:09.000Z</time>
      </trkpt>
      <trkpt lat="-22.64679" lon="-47.040661">
        <ele>623.100115</ele>
        <time>2023-12-17T10:06:13.000Z</time>
      </trkpt>
      <trkpt lat="-22.649965" lon="-47.038272">
        <ele>620.10064</ele>
        <time>2023-12-17T10:06:56.000Z</time>
      </trkpt>
      <trkpt lat="-22.651455" lon="-47.037157">
        <ele>617.999458</ele>
        <time>2023-12-17T10:07:16.000Z</time>
      </trkpt>
      <trkpt lat="-22.652083" lon="-47.036659">
        <ele>617.08128</ele>
        <time>2023-12-17T10:07:25.000Z</time>
      </trkpt>
      <trkpt lat="-22.652306" lon="-47.036599">
        <ele>616.665784</ele>
        <time>2023-12-17T10:07:28.000Z</time>
      </trkpt>
      <trkpt lat="-22.652903" lon="-47.036629">
        <ele>615.649332</ele>
        <time>2023-12-17T10:07:35.000Z</time>
      </trkpt>
      <trkpt lat="-22.653123" lon="-47.036753">
        <ele>615.205942</ele>
        <time>2023-12-17T10:07:38.000Z</time>
      </trkpt>
      <trkpt lat="-22.653303" lon="-47.036844">
        <ele>614.876647</ele>
        <time>2023-12-17T10:07:40.000Z</time>
      </trkpt>
      <trkpt lat="-22.653424" lon="-47.036994">
        <ele>614.546977</ele>
        <time>2023-12-17T10:07:42.000Z</time>
      </trkpt>
      <trkpt lat="-22.653753" lon="-47.037465">
        <ele>612.792463</ele>
        <time>2023-12-17T10:07:48.000Z</time>
      </trkpt>
      <trkpt lat="-22.654089" lon="-47.037759">
        <ele>610.901694</ele>
        <time>2023-12-17T10:07:53.000Z</time>
      </trkpt>
      <trkpt lat="-22.654362" lon="-47.037973">
        <ele>609.440119</ele>
        <time>2023-12-17T10:07:57.000Z</time>
      </trkpt>
      <trkpt lat="-22.654551" lon="-47.038183">
        <ele>608.267876</ele>
        <time>2023-12-17T10:08:00.000Z</time>
      </trkpt>
      <trkpt lat="-22.655042" lon="-47.038993">
        <ele>604.567302</ele>
        <time>2023-12-17T10:08:10.000Z</time>
      </trkpt>
      <trkpt lat="-22.656234" lon="-47.040363">
        <ele>598.945334</ele>
        <time>2023-12-17T10:08:29.000Z</time>
      </trkpt>
      <trkpt lat="-22.656416" lon="-47.040492">
        <ele>598.758405</ele>
        <time>2023-12-17T10:08:31.000Z</time>
      </trkpt>
      <trkpt lat="-22.657358" lon="-47.041019">
        <ele>597.793084</ele>
        <time>2023-12-17T10:08:43.000Z</time>
      </trkpt>
      <trkpt lat="-22.65799" lon="-47.041325">
        <ele>598.876057</ele>
        <time>2023-12-17T10:08:51.000Z</time>
      </trkpt>
      <trkpt lat="-22.658268" lon="-47.041422">
        <ele>599.466814</ele>
        <time>2023-12-17T10:08:54.000Z</time>
      </trkpt>
      <trkpt lat="-22.658661" lon="-47.041491">
        <ele>600.312281</ele>
        <time>2023-12-17T10:08:58.000Z</time>
      </trkpt>
      <trkpt lat="-22.65902" lon="-47.041535">
        <ele>601.025803</ele>
        <time>2023-12-17T10:09:02.000Z</time>
      </trkpt>
      <trkpt lat="-22.660127" lon="-47.041629">
        <ele>602.130729</ele>
        <time>2023-12-17T10:09:14.000Z</time>
      </trkpt>
      <trkpt lat="-22.660456" lon="-47.041707">
        <ele>602.387845</ele>
        <time>2023-12-17T10:09:18.000Z</time>
      </trkpt>
      <trkpt lat="-22.660463" lon="-47.041699">
        <ele>602.390274</ele>
        <time>2023-12-17T10:09:18.000Z</time>
      </trkpt>
      <trkpt lat="-22.66045" lon="-47.041698">
        <ele>602.392716</ele>
        <time>2023-12-17T10:09:18.000Z</time>
      </trkpt>
      <trkpt lat="-22.66013" lon="-47.041626">
        <ele>602.649835</ele>
        <time>2023-12-17T10:09:22.000Z</time>
      </trkpt>
      <trkpt lat="-22.659016" lon="-47.041534">
        <ele>600.748704</ele>
        <time>2023-12-17T10:09:34.000Z</time>
      </trkpt>
      <trkpt lat="-22.658677" lon="-47.041498">
        <ele>599.987947</ele>
        <time>2023-12-17T10:09:38.000Z</time>
      </trkpt>
      <trkpt lat="-22.658268" lon="-47.041419">
        <ele>599.086525</ele>
        <time>2023-12-17T10:09:43.000Z</time>
      </trkpt>
      <trkpt lat="-22.658002" lon="-47.041322">
        <ele>598.73298</ele>
        <time>2023-12-17T10:09:46.000Z</time>
      </trkpt>
      <trkpt lat="-22.657353" lon="-47.041025">
        <ele>598.33149</ele>
        <time>2023-12-17T10:09:54.000Z</time>
      </trkpt>
      <trkpt lat="-22.656402" lon="-47.040492">
        <ele>598.181446</ele>
        <time>2023-12-17T10:10:06.000Z</time>
      </trkpt>
      <trkpt lat="-22.656249" lon="-47.040361">
        <ele>598.779351</ele>
        <time>2023-12-17T10:10:08.000Z</time>
      </trkpt>
      <trkpt lat="-22.655037" lon="-47.039005">
        <ele>604.335346</ele>
        <time>2023-12-17T10:10:27.000Z</time>
      </trkpt>
      <trkpt lat="-22.654559" lon="-47.038188">
        <ele>608.530196</ele>
        <time>2023-12-17T10:10:37.000Z</time>
      </trkpt>
      <trkpt lat="-22.654369" lon="-47.037976">
        <ele>609.799062</ele>
        <time>2023-12-17T10:10:40.000Z</time>
      </trkpt>
      <trkpt lat="-22.654088" lon="-47.037762">
        <ele>611.381068</ele>
        <time>2023-12-17T10:10:44.000Z</time>
      </trkpt>
      <trkpt lat="-22.653749" lon="-47.037459">
        <ele>612.619537</ele>
        <time>2023-12-17T10:10:49.000Z</time>
      </trkpt>
      <trkpt lat="-22.653429" lon="-47.036996">
        <ele>614.113015</ele>
        <time>2023-12-17T10:10:55.000Z</time>
      </trkpt>
      <trkpt lat="-22.653292" lon="-47.036846">
        <ele>614.639981</ele>
        <time>2023-12-17T10:10:57.000Z</time>
      </trkpt>
      <trkpt lat="-22.653136" lon="-47.036744">
        <ele>615.166344</ele>
        <time>2023-12-17T10:10:59.000Z</time>
      </trkpt>
      <trkpt lat="-22.652893" lon="-47.036634">
        <ele>615.875116</ele>
        <time>2023-12-17T10:11:02.000Z</time>
      </trkpt>
      <trkpt lat="-22.652324" lon="-47.036597">
        <ele>616.848599</ele>
        <time>2023-12-17T10:11:08.000Z</time>
      </trkpt>
      <trkpt lat="-22.652077" lon="-47.036658">
        <ele>617.106942</ele>
        <time>2023-12-17T10:11:11.000Z</time>
      </trkpt>
      <trkpt lat="-22.651462" lon="-47.037164">
        <ele>617.948191</ele>
        <time>2023-12-17T10:11:20.000Z</time>
      </trkpt>
      <trkpt lat="-22.649967" lon="-47.038256">
        <ele>620.08836</ele>
        <time>2023-12-17T10:11:40.000Z</time>
      </trkpt>
      <trkpt lat="-22.646773" lon="-47.040669">
        <ele>624.554838</ele>
        <time>2023-12-17T10:12:23.000Z</time>
      </trkpt>
      <trkpt lat="-22.646502" lon="-47.040863">
        <ele>624.088286</ele>
        <time>2023-12-17T10:12:27.000Z</time>
      </trkpt>
      <trkpt lat="-22.645634" lon="-47.041525">
        <ele>621.397538</ele>
        <time>2023-12-17T10:12:39.000Z</time>
      </trkpt>
      <trkpt lat="-22.64359" lon="-47.043061">
        <ele>612.135161</ele>
        <time>2023-12-17T10:13:07.000Z</time>
      </trkpt>
      <trkpt lat="-22.641405" lon="-47.044683">
        <ele>603.493478</ele>
        <time>2023-12-17T10:13:36.000Z</time>
      </trkpt>
      <trkpt lat="-22.641365" lon="-47.04465">
        <ele>603.35526</ele>
        <time>2023-12-17T10:13:37.000Z</time>
      </trkpt>
      <trkpt lat="-22.641262" lon="-47.044707">
        <ele>603.089557</ele>
        <time>2023-12-17T10:13:38.000Z</time>
      </trkpt>
      <trkpt lat="-22.641221" lon="-47.044573">
        <ele>602.780133</ele>
        <time>2023-12-17T10:13:39.000Z</time>
      </trkpt>
      <trkpt lat="-22.641021" lon="-47.044033">
        <ele>601.696746</ele>
        <time>2023-12-17T10:13:45.000Z</time>
      </trkpt>
      <trkpt lat="-22.640769" lon="-47.043548">
        <ele>602.310914</ele>
        <time>2023-12-17T10:13:51.000Z</time>
      </trkpt>
      <trkpt lat="-22.64073" lon="-47.043473">
        <ele>602.422762</ele>
        <time>2023-12-17T10:13:52.000Z</time>
      </trkpt>
      <trkpt lat="-22.640679" lon="-47.043365">
        <ele>602.553242</ele>
        <time>2023-12-17T10:13:53.000Z</time>
      </trkpt>
      <trkpt lat="-22.640663" lon="-47.043336">
        <ele>602.595501</ele>
        <time>2023-12-17T10:13:53.000Z</time>
      </trkpt>
      <trkpt lat="-22.64046" lon="-47.042925">
        <ele>603.129743</ele>
        <time>2023-12-17T10:13:58.000Z</time>
      </trkpt>
      <trkpt lat="-22.638721" lon="-47.03919">
        <ele>611.205771</ele>
        <time>2023-12-17T10:14:41.000Z</time>
      </trkpt>
      <trkpt lat="-22.638152" lon="-47.038542">
        <ele>612.552331</ele>
        <time>2023-12-17T10:14:50.000Z</time>
      </trkpt>
      <trkpt lat="-22.637225" lon="-47.037087">
        <ele>614.49854</ele>
        <time>2023-12-17T10:15:08.000Z</time>
      </trkpt>
      <trkpt lat="-22.636819" lon="-47.036439">
        <ele>615.108033</ele>
        <time>2023-12-17T10:15:16.000Z</time>
      </trkpt>
      <trkpt lat="-22.635796" lon="-47.034145">
        <ele>616.908407</ele>
        <time>2023-12-17T10:15:42.000Z</time>
      </trkpt>
      <trkpt lat="-22.635703" lon="-47.033862">
        <ele>616.961103</ele>
        <time>2023-12-17T10:15:45.000Z</time>
      </trkpt>
      <trkpt lat="-22.635599" lon="-47.03343">
        <ele>616.635653</ele>
        <time>2023-12-17T10:15:50.000Z</time>
      </trkpt>
      <trkpt lat="-22.635555" lon="-47.032737">
        <ele>616.130955</ele>
        <time>2023-12-17T10:15:57.000Z</time>
      </trkpt>
      <trkpt lat="-22.635254" lon="-47.031839">
        <ele>615.115275</ele>
        <time>2023-12-17T10:16:07.000Z</time>
      </trkpt>
      <trkpt lat="-22.635104" lon="-47.03147">
        <ele>614.248914</ele>
        <time>2023-12-17T10:16:11.000Z</time>
      </trkpt>
      <trkpt lat="-22.634681" lon="-47.030762">
        <ele>612.494172</ele>
        <time>2023-12-17T10:16:20.000Z</time>
      </trkpt>
      <trkpt lat="-22.634275" lon="-47.030073">
        <ele>611.341783</ele>
        <time>2023-12-17T10:16:28.000Z</time>
      </trkpt>
      <trkpt lat="-22.633575" lon="-47.029108">
        <ele>610.493397</ele>
        <time>2023-12-17T10:16:41.000Z</time>
      </trkpt>
      <trkpt lat="-22.633579" lon="-47.029105">
        <ele>610.492394</ele>
        <time>2023-12-17T10:16:41.000Z</time>
      </trkpt>
      <trkpt lat="-22.633563" lon="-47.029108">
        <ele>610.491387</ele>
        <time>2023-12-17T10:16:41.000Z</time>
      </trkpt>
      <trkpt lat="-22.634279" lon="-47.030075">
        <ele>611.507253</ele>
        <time>2023-12-17T10:16:54.000Z</time>
      </trkpt>
      <trkpt lat="-22.634666" lon="-47.030755">
        <ele>612.624636</ele>
        <time>2023-12-17T10:17:02.000Z</time>
      </trkpt>
      <trkpt lat="-22.635094" lon="-47.031471">
        <ele>614.083933</ele>
        <time>2023-12-17T10:17:11.000Z</time>
      </trkpt>
      <trkpt lat="-22.635254" lon="-47.031848">
        <ele>614.862056</ele>
        <time>2023-12-17T10:17:15.000Z</time>
      </trkpt>
      <trkpt lat="-22.635556" lon="-47.032749">
        <ele>616.600528</ele>
        <time>2023-12-17T10:17:25.000Z</time>
      </trkpt>
      <trkpt lat="-22.635593" lon="-47.033427">
        <ele>616.628684</ele>
        <time>2023-12-17T10:17:32.000Z</time>
      </trkpt>
      <trkpt lat="-22.635702" lon="-47.033867">
        <ele>616.646847</ele>
        <time>2023-12-17T10:17:37.000Z</time>
      </trkpt>
      <trkpt lat="-22.635799" lon="-47.034132">
        <ele>616.658548</ele>
        <time>2023-12-17T10:17:40.000Z</time>
      </trkpt>
      <trkpt lat="-22.636825" lon="-47.036447">
        <ele>615.121876</ele>
        <time>2023-12-17T10:18:06.000Z</time>
      </trkpt>
      <trkpt lat="-22.637218" lon="-47.037102">
        <ele>614.457479</ele>
        <time>2023-12-17T10:18:14.000Z</time>
      </trkpt>
      <trkpt lat="-22.63816" lon="-47.038538">
        <ele>612.497066</ele>
        <time>2023-12-17T10:18:32.000Z</time>
      </trkpt>
      <trkpt lat="-22.638709" lon="-47.039201">
        <ele>611.13856</ele>
        <time>2023-12-17T10:18:41.000Z</time>
      </trkpt>
      <trkpt lat="-22.640457" lon="-47.042908">
        <ele>602.645357</ele>
        <time>2023-12-17T10:19:24.000Z</time>
      </trkpt>
      <trkpt lat="-22.640663" lon="-47.043324">
        <ele>601.928506</ele>
        <time>2023-12-17T10:19:29.000Z</time>
      </trkpt>
      <trkpt lat="-22.640674" lon="-47.043368">
        <ele>601.875779</ele>
        <time>2023-12-17T10:19:29.000Z</time>
      </trkpt>
      <trkpt lat="-22.640726" lon="-47.043455">
        <ele>601.712934</ele>
        <time>2023-12-17T10:19:30.000Z</time>
      </trkpt>
      <trkpt lat="-22.640779" lon="-47.043552">
        <ele>601.573357</ele>
        <time>2023-12-17T10:19:31.000Z</time>
      </trkpt>
      <trkpt lat="-22.64102" lon="-47.04403">
        <ele>600.806909</ele>
        <time>2023-12-17T10:19:37.000Z</time>
      </trkpt>
      <trkpt lat="-22.641238" lon="-47.04457">
        <ele>599.976983</ele>
        <time>2023-12-17T10:19:43.000Z</time>
      </trkpt>
      <trkpt lat="-22.641262" lon="-47.044702">
        <ele>599.782225</ele>
        <time>2023-12-17T10:19:44.000Z</time>
      </trkpt>
      <trkpt lat="-22.641216" lon="-47.044845">
        <ele>599.591712</ele>
        <time>2023-12-17T10:19:46.000Z</time>
      </trkpt>
      <trkpt lat="-22.639974" lon="-47.04605">
        <ele>597.350231</ele>
        <time>2023-12-17T10:20:05.000Z</time>
      </trkpt>
      <trkpt lat="-22.639829" lon="-47.046285">
        <ele>597.050337</ele>
        <time>2023-12-17T10:20:08.000Z</time>
      </trkpt>
      <trkpt lat="-22.639268" lon="-47.047425">
        <ele>595.70918</ele>
        <time>2023-12-17T10:20:21.000Z</time>
      </trkpt>
      <trkpt lat="-22.638731" lon="-47.048709">
        <ele>595.243854</ele>
        <time>2023-12-17T10:20:35.000Z</time>
      </trkpt>
      <trkpt lat="-22.638724" lon="-47.048738">
        <ele>595.242874</ele>
        <time>2023-12-17T10:20:35.000Z</time>
      </trkpt>
      <trkpt lat="-22.638598" lon="-47.049049">
        <ele>595.230535</ele>
        <time>2023-12-17T10:20:38.000Z</time>
      </trkpt>
      <trkpt lat="-22.638425" lon="-47.049636">
        <ele>595.241948</ele>
        <time>2023-12-17T10:20:44.000Z</time>
      </trkpt>
      <trkpt lat="-22.638427" lon="-47.049673">
        <ele>595.27278</ele>
        <time>2023-12-17T10:20:44.000Z</time>
      </trkpt>
      <trkpt lat="-22.638433" lon="-47.049673">
        <ele>595.276164</ele>
        <time>2023-12-17T10:20:44.000Z</time>
      </trkpt>
      <trkpt lat="-22.63845" lon="-47.049691">
        <ele>595.289027</ele>
        <time>2023-12-17T10:20:44.000Z</time>
      </trkpt>
      <trkpt lat="-22.638448" lon="-47.049706">
        <ele>595.297903</ele>
        <time>2023-12-17T10:20:44.000Z</time>
      </trkpt>
      <trkpt lat="-22.638511" lon="-47.049711">
        <ele>595.346154</ele>
        <time>2023-12-17T10:20:45.000Z</time>
      </trkpt>
      <trkpt lat="-22.638561" lon="-47.0497">
        <ele>595.384874</ele>
        <time>2023-12-17T10:20:46.000Z</time>
      </trkpt>
      <trkpt lat="-22.638677" lon="-47.049614">
        <ele>595.508415</ele>
        <time>2023-12-17T10:20:48.000Z</time>
      </trkpt>
      <trkpt lat="-22.638782" lon="-47.049501">
        <ele>595.624761</ele>
        <time>2023-12-17T10:20:50.000Z</time>
      </trkpt>
      <trkpt lat="-22.638892" lon="-47.049241">
        <ele>595.839754</ele>
        <time>2023-12-17T10:20:53.000Z</time>
      </trkpt>
      <trkpt lat="-22.638905" lon="-47.04917">
        <ele>595.895227</ele>
        <time>2023-12-17T10:20:54.000Z</time>
      </trkpt>
      <trkpt lat="-22.638914" lon="-47.049103">
        <ele>595.947738</ele>
        <time>2023-12-17T10:20:55.000Z</time>
      </trkpt>
      <trkpt lat="-22.638907" lon="-47.048738">
        <ele>596.213824</ele>
        <time>2023-12-17T10:20:59.000Z</time>
      </trkpt>
      <trkpt lat="-22.638927" lon="-47.048505">
        <ele>596.384222</ele>
        <time>2023-12-17T10:21:01.000Z</time>
      </trkpt>
      <trkpt lat="-22.639235" lon="-47.047755">
        <ele>596.94915</ele>
        <time>2023-12-17T10:21:09.000Z</time>
      </trkpt>
      <trkpt lat="-22.639542" lon="-47.04708">
        <ele>597.420466</ele>
        <time>2023-12-17T10:21:17.000Z</time>
      </trkpt>
      <trkpt lat="-22.6399" lon="-47.046345">
        <ele>598.009099</ele>
        <time>2023-12-17T10:21:26.000Z</time>
      </trkpt>
      <trkpt lat="-22.640046" lon="-47.046127">
        <ele>598.357538</ele>
        <time>2023-12-17T10:21:29.000Z</time>
      </trkpt>
      <trkpt lat="-22.64025" lon="-47.045919">
        <ele>598.745926</ele>
        <time>2023-12-17T10:21:32.000Z</time>
      </trkpt>
      <trkpt lat="-22.640473" lon="-47.045693">
        <ele>599.180704</ele>
        <time>2023-12-17T10:21:35.000Z</time>
      </trkpt>
      <trkpt lat="-22.64124" lon="-47.044996">
        <ele>600.820817</ele>
        <time>2023-12-17T10:21:46.000Z</time>
      </trkpt>
      <trkpt lat="-22.641273" lon="-47.045006">
        <ele>600.960138</ele>
        <time>2023-12-17T10:21:46.000Z</time>
      </trkpt>
      <trkpt lat="-22.641324" lon="-47.044994">
        <ele>601.138284</ele>
        <time>2023-12-17T10:21:47.000Z</time>
      </trkpt>
      <trkpt lat="-22.641364" lon="-47.045006">
        <ele>601.239423</ele>
        <time>2023-12-17T10:21:47.000Z</time>
      </trkpt>
      <trkpt lat="-22.641399" lon="-47.044964">
        <ele>601.40634</ele>
        <time>2023-12-17T10:21:48.000Z</time>
      </trkpt>
      <trkpt lat="-22.641435" lon="-47.04479">
        <ele>601.931005</ele>
        <time>2023-12-17T10:21:50.000Z</time>
      </trkpt>
      <trkpt lat="-22.641432" lon="-47.044792">
        <ele>601.95969</ele>
        <time>2023-12-17T10:21:50.000Z</time>
      </trkpt>
      <trkpt lat="-22.641438" lon="-47.044792">
        <ele>601.965875</ele>
        <time>2023-12-17T10:21:50.000Z</time>
      </trkpt>
      <trkpt lat="-22.641434" lon="-47.044788">
        <ele>601.972933</ele>
        <time>2023-12-17T10:21:50.000Z</time>
      </trkpt>
      <trkpt lat="-22.641456" lon="-47.044736">
        <ele>602.154827</ele>
        <time>2023-12-17T10:21:51.000Z</time>
      </trkpt>
      <trkpt lat="-22.641402" lon="-47.044695">
        <ele>602.341809</ele>
        <time>2023-12-17T10:21:52.000Z</time>
      </trkpt>
      <trkpt lat="-22.643601" lon="-47.043049">
        <ele>612.099236</ele>
        <time>2023-12-17T10:22:22.000Z</time>
      </trkpt>
      <trkpt lat="-22.645621" lon="-47.041522">
        <ele>621.51899</ele>
        <time>2023-12-17T10:22:49.000Z</time>
      </trkpt>
      <trkpt lat="-22.646506" lon="-47.040879">
        <ele>623.817711</ele>
        <time>2023-12-17T10:23:01.000Z</time>
      </trkpt>
      <trkpt lat="-22.646784" lon="-47.040661">
        <ele>624.52156</ele>
        <time>2023-12-17T10:23:05.000Z</time>
      </trkpt>
      <trkpt lat="-22.649961" lon="-47.038265">
        <ele>620.072816</ele>
        <time>2023-12-17T10:23:48.000Z</time>
      </trkpt>
      <trkpt lat="-22.651467" lon="-47.037148">
        <ele>617.939615</ele>
        <time>2023-12-17T10:24:08.000Z</time>
      </trkpt>
      <trkpt lat="-22.652078" lon="-47.036658">
        <ele>617.058536</ele>
        <time>2023-12-17T10:24:16.000Z</time>
      </trkpt>
      <trkpt lat="-22.652319" lon="-47.036594">
        <ele>616.787958</ele>
        <time>2023-12-17T10:24:19.000Z</time>
      </trkpt>
      <trkpt lat="-22.652902" lon="-47.036634">
        <ele>616.115264</ele>
        <time>2023-12-17T10:24:25.000Z</time>
      </trkpt>
      <trkpt lat="-22.653131" lon="-47.036736">
        <ele>615.32713</ele>
        <time>2023-12-17T10:24:28.000Z</time>
      </trkpt>
      <trkpt lat="-22.653302" lon="-47.036848">
        <ele>614.741822</ele>
        <time>2023-12-17T10:24:30.000Z</time>
      </trkpt>
      <trkpt lat="-22.653437" lon="-47.036985">
        <ele>614.155865</ele>
        <time>2023-12-17T10:24:32.000Z</time>
      </trkpt>
      <trkpt lat="-22.653757" lon="-47.037457">
        <ele>612.495147</ele>
        <time>2023-12-17T10:24:38.000Z</time>
      </trkpt>
      <trkpt lat="-22.65408" lon="-47.037758">
        <ele>611.139532</ele>
        <time>2023-12-17T10:24:43.000Z</time>
      </trkpt>
      <trkpt lat="-22.654374" lon="-47.037966">
        <ele>609.855183</ele>
        <time>2023-12-17T10:24:47.000Z</time>
      </trkpt>
      <trkpt lat="-22.654554" lon="-47.038186">
        <ele>608.596464</ele>
        <time>2023-12-17T10:24:50.000Z</time>
      </trkpt>
      <trkpt lat="-22.655042" lon="-47.039007">
        <ele>604.435107</ele>
        <time>2023-12-17T10:25:00.000Z</time>
      </trkpt>
      <trkpt lat="-22.656239" lon="-47.040362">
        <ele>598.956876</ele>
        <time>2023-12-17T10:25:19.000Z</time>
      </trkpt>
      <trkpt lat="-22.65641" lon="-47.040495">
        <ele>598.4247</ele>
        <time>2023-12-17T10:25:21.000Z</time>
      </trkpt>
      <trkpt lat="-22.657349" lon="-47.041017">
        <ele>598.27776</ele>
        <time>2023-12-17T10:25:33.000Z</time>
      </trkpt>
      <trkpt lat="-22.658006" lon="-47.041325">
        <ele>598.944266</ele>
        <time>2023-12-17T10:25:41.000Z</time>
      </trkpt>
      <trkpt lat="-22.658265" lon="-47.041406">
        <ele>599.216368</ele>
        <time>2023-12-17T10:25:44.000Z</time>
      </trkpt>
      <trkpt lat="-22.65867" lon="-47.041506">
        <ele>599.982012</ele>
        <time>2023-12-17T10:25:49.000Z</time>
      </trkpt>
      <trkpt lat="-22.659009" lon="-47.041534">
        <ele>600.704422</ele>
        <time>2023-12-17T10:25:53.000Z</time>
      </trkpt>
      <trkpt lat="-22.660132" lon="-47.041627">
        <ele>603.051578</ele>
        <time>2023-12-17T10:26:06.000Z</time>
      </trkpt>
      <trkpt lat="-22.660449" lon="-47.041697">
        <ele>602.686755</ele>
        <time>2023-12-17T10:26:10.000Z</time>
      </trkpt>
      <trkpt lat="-22.660457" lon="-47.041701">
        <ele>602.683181</ele>
        <time>2023-12-17T10:26:10.000Z</time>
      </trkpt>
      <trkpt lat="-22.660455" lon="-47.041717">
        <ele>602.679596</ele>
        <time>2023-12-17T10:26:10.000Z</time>
      </trkpt>
      <trkpt lat="-22.660471" lon="-47.041715">
        <ele>602.666677</ele>
        <time>2023-12-17T10:26:10.000Z</time>
      </trkpt>
      <trkpt lat="-22.660459" lon="-47.041714">
        <ele>602.653769</ele>
        <time>2023-12-17T10:26:10.000Z</time>
      </trkpt>
      <trkpt lat="-22.660457" lon="-47.041716">
        <ele>602.650185</ele>
        <time>2023-12-17T10:26:10.000Z</time>
      </trkpt>
      <trkpt lat="-22.660456" lon="-47.04171">
        <ele>602.646609</ele>
        <time>2023-12-17T10:26:10.000Z</time>
      </trkpt>
      <trkpt lat="-22.660136" lon="-47.041625">
        <ele>602.268883</ele>
        <time>2023-12-17T10:26:14.000Z</time>
      </trkpt>
      <trkpt lat="-22.659007" lon="-47.041529">
        <ele>600.980221</ele>
        <time>2023-12-17T10:26:27.000Z</time>
      </trkpt>
      <trkpt lat="-22.658662" lon="-47.041494">
        <ele>600.319504</ele>
        <time>2023-12-17T10:26:31.000Z</time>
      </trkpt>
      <trkpt lat="-22.658272" lon="-47.041417">
        <ele>599.536629</ele>
        <time>2023-12-17T10:26:35.000Z</time>
      </trkpt>
      <trkpt lat="-22.658005" lon="-47.041323">
        <ele>598.989625</ele>
        <time>2023-12-17T10:26:38.000Z</time>
      </trkpt>
      <trkpt lat="-22.657352" lon="-47.041016">
        <ele>597.649715</ele>
        <time>2023-12-17T10:26:46.000Z</time>
      </trkpt>
      <trkpt lat="-22.656403" lon="-47.040499">
        <ele>598.825096</ele>
        <time>2023-12-17T10:26:58.000Z</time>
      </trkpt>
      <trkpt lat="-22.656232" lon="-47.040378">
        <ele>599.079661</ele>
        <time>2023-12-17T10:27:00.000Z</time>
      </trkpt>
      <trkpt lat="-22.655042" lon="-47.039009">
        <ele>604.602949</ele>
        <time>2023-12-17T10:27:19.000Z</time>
      </trkpt>
      <trkpt lat="-22.654561" lon="-47.038189">
        <ele>608.309437</ele>
        <time>2023-12-17T10:27:29.000Z</time>
      </trkpt>
      <trkpt lat="-22.654369" lon="-47.037969">
        <ele>609.431332</ele>
        <time>2023-12-17T10:27:32.000Z</time>
      </trkpt>
      <trkpt lat="-22.654086" lon="-47.037769">
        <ele>610.830121</ele>
        <time>2023-12-17T10:27:36.000Z</time>
      </trkpt>
      <trkpt lat="-22.653764" lon="-47.037455">
        <ele>612.639676</ele>
        <time>2023-12-17T10:27:41.000Z</time>
      </trkpt>
      <trkpt lat="-22.653429" lon="-47.036994">
        <ele>614.723926</ele>
        <time>2023-12-17T10:27:47.000Z</time>
      </trkpt>
      <trkpt lat="-22.653286" lon="-47.036843">
        <ele>615.021302</ele>
        <time>2023-12-17T10:27:49.000Z</time>
      </trkpt>
      <trkpt lat="-22.653138" lon="-47.036753">
        <ele>615.318344</ele>
        <time>2023-12-17T10:27:51.000Z</time>
      </trkpt>
      <trkpt lat="-22.652905" lon="-47.036628">
        <ele>615.718326</ele>
        <time>2023-12-17T10:27:54.000Z</time>
      </trkpt>
      <trkpt lat="-22.652307" lon="-47.036596">
        <ele>616.635251</ele>
        <time>2023-12-17T10:28:01.000Z</time>
      </trkpt>
      <trkpt lat="-22.65208" lon="-47.036657">
        <ele>617.010071</ele>
        <time>2023-12-17T10:28:04.000Z</time>
      </trkpt>
      <trkpt lat="-22.65145" lon="-47.037155">
        <ele>617.997795</ele>
        <time>2023-12-17T10:28:13.000Z</time>
      </trkpt>
      <trkpt lat="-22.649962" lon="-47.038266">
        <ele>620.092208</ele>
        <time>2023-12-17T10:28:33.000Z</time>
      </trkpt>
      <trkpt lat="-22.646783" lon="-47.040665">
        <ele>623.790895</ele>
        <time>2023-12-17T10:29:16.000Z</time>
      </trkpt>
      <trkpt lat="-22.646511" lon="-47.040862">
        <ele>623.576054</ele>
        <time>2023-12-17T10:29:20.000Z</time>
      </trkpt>
      <trkpt lat="-22.645629" lon="-47.041534">
        <ele>621.697692</ele>
        <time>2023-12-17T10:29:32.000Z</time>
      </trkpt>
      <trkpt lat="-22.643601" lon="-47.043062">
        <ele>612.205628</ele>
        <time>2023-12-17T10:29:59.000Z</time>
      </trkpt>
      <trkpt lat="-22.641408" lon="-47.044693">
        <ele>602.972498</ele>
        <time>2023-12-17T10:30:29.000Z</time>
      </trkpt>
      <trkpt lat="-22.64136" lon="-47.044655">
        <ele>602.944485</ele>
        <time>2023-12-17T10:30:30.000Z</time>
      </trkpt>
      <trkpt lat="-22.641252" lon="-47.044693">
        <ele>602.89061</ele>
        <time>2023-12-17T10:30:31.000Z</time>
      </trkpt>
      <trkpt lat="-22.641231" lon="-47.044557">
        <ele>602.827867</ele>
        <time>2023-12-17T10:30:32.000Z</time>
      </trkpt>
      <trkpt lat="-22.641015" lon="-47.044019">
        <ele>602.560489</ele>
        <time>2023-12-17T10:30:38.000Z</time>
      </trkpt>
      <trkpt lat="-22.640777" lon="-47.043549">
        <ele>602.313555</ele>
        <time>2023-12-17T10:30:44.000Z</time>
      </trkpt>
      <trkpt lat="-22.640728" lon="-47.043466">
        <ele>602.268578</ele>
        <time>2023-12-17T10:30:45.000Z</time>
      </trkpt>
      <trkpt lat="-22.640681" lon="-47.043357">
        <ele>602.216126</ele>
        <time>2023-12-17T10:30:46.000Z</time>
      </trkpt>
      <trkpt lat="-22.64067" lon="-47.043328">
        <ele>602.199132</ele>
        <time>2023-12-17T10:30:46.000Z</time>
      </trkpt>
      <trkpt lat="-22.640463" lon="-47.042909">
        <ele>602.810794</ele>
        <time>2023-12-17T10:30:51.000Z</time>
      </trkpt>
      <trkpt lat="-22.638705" lon="-47.039194">
        <ele>611.081777</ele>
        <time>2023-12-17T10:31:34.000Z</time>
      </trkpt>
      <trkpt lat="-22.638154" lon="-47.038539">
        <ele>612.551258</ele>
        <time>2023-12-17T10:31:43.000Z</time>
      </trkpt>
      <trkpt lat="-22.637226" lon="-47.037087">
        <ele>614.45263</ele>
        <time>2023-12-17T10:32:01.000Z</time>
      </trkpt>
      <trkpt lat="-22.636817" lon="-47.036447">
        <ele>615.135013</ele>
        <time>2023-12-17T10:32:09.000Z</time>
      </trkpt>
      <trkpt lat="-22.635796" lon="-47.034145">
        <ele>616.629401</ele>
        <time>2023-12-17T10:32:35.000Z</time>
      </trkpt>
      <trkpt lat="-22.635706" lon="-47.033874">
        <ele>616.680931</ele>
        <time>2023-12-17T10:32:38.000Z</time>
      </trkpt>
      <trkpt lat="-22.635603" lon="-47.033429">
        <ele>616.760908</ele>
        <time>2023-12-17T10:32:43.000Z</time>
      </trkpt>
      <trkpt lat="-22.635542" lon="-47.032735">
        <ele>616.414557</ele>
        <time>2023-12-17T10:32:50.000Z</time>
      </trkpt>
      <trkpt lat="-22.635252" lon="-47.031852">
        <ele>614.824451</ele>
        <time>2023-12-17T10:33:00.000Z</time>
      </trkpt>
      <trkpt lat="-22.635089" lon="-47.031463">
        <ele>614.122347</ele>
        <time>2023-12-17T10:33:04.000Z</time>
      </trkpt>
      <trkpt lat="-22.634668" lon="-47.030751">
        <ele>612.718996</ele>
        <time>2023-12-17T10:33:13.000Z</time>
      </trkpt>
      <trkpt lat="-22.634276" lon="-47.030073">
        <ele>611.409329</ele>
        <time>2023-12-17T10:33:21.000Z</time>
      </trkpt>
      <trkpt lat="-22.633573" lon="-47.029093">
        <ele>610.625812</ele>
        <time>2023-12-17T10:33:34.000Z</time>
      </trkpt>
      <trkpt lat="-22.633567" lon="-47.029101">
        <ele>610.626411</ele>
        <time>2023-12-17T10:33:34.000Z</time>
      </trkpt>
      <trkpt lat="-22.633566" lon="-47.02909">
        <ele>610.626811</ele>
        <time>2023-12-17T10:33:34.000Z</time>
      </trkpt>
      <trkpt lat="-22.63357" lon="-47.029106">
        <ele>610.627201</ele>
        <time>2023-12-17T10:33:34.000Z</time>
      </trkpt>
      <trkpt lat="-22.633564" lon="-47.029095">
        <ele>610.627809</ele>
        <time>2023-12-17T10:33:34.000Z</time>
      </trkpt>
      <trkpt lat="-22.634268" lon="-47.030076">
        <ele>611.127117</ele>
        <time>2023-12-17T10:33:47.000Z</time>
      </trkpt>
      <trkpt lat="-22.634675" lon="-47.030749">
        <ele>612.595163</ele>
        <time>2023-12-17T10:33:55.000Z</time>
      </trkpt>
      <trkpt lat="-22.635091" lon="-47.031466">
        <ele>614.313543</ele>
        <time>2023-12-17T10:34:04.000Z</time>
      </trkpt>
      <trkpt lat="-22.635254" lon="-47.031855">
        <ele>615.135792</ele>
        <time>2023-12-17T10:34:08.000Z</time>
      </trkpt>
      <trkpt lat="-22.635547" lon="-47.032745">
        <ele>616.0993</ele>
        <time>2023-12-17T10:34:18.000Z</time>
      </trkpt>
      <trkpt lat="-22.635601" lon="-47.033429">
        <ele>616.803996</ele>
        <time>2023-12-17T10:34:25.000Z</time>
      </trkpt>
      <trkpt lat="-22.635708" lon="-47.033859">
        <ele>616.988419</ele>
        <time>2023-12-17T10:34:30.000Z</time>
      </trkpt>
      <trkpt lat="-22.635785" lon="-47.034137">
        <ele>616.817478</ele>
        <time>2023-12-17T10:34:33.000Z</time>
      </trkpt>
      <trkpt lat="-22.636819" lon="-47.036439">
        <ele>615.118319</ele>
        <time>2023-12-17T10:34:59.000Z</time>
      </trkpt>
      <trkpt lat="-22.637226" lon="-47.03709">
        <ele>614.515615</ele>
        <time>2023-12-17T10:35:07.000Z</time>
      </trkpt>
      <trkpt lat="-22.638153" lon="-47.038537">
        <ele>612.630254</ele>
        <time>2023-12-17T10:35:25.000Z</time>
      </trkpt>
      <trkpt lat="-22.638723" lon="-47.039207">
        <ele>611.137998</ele>
        <time>2023-12-17T10:35:34.000Z</time>
      </trkpt>
      <trkpt lat="-22.640451" lon="-47.042923">
        <ele>602.823381</ele>
        <time>2023-12-17T10:36:17.000Z</time>
      </trkpt>
      <trkpt lat="-22.640674" lon="-47.043337">
        <ele>601.989484</ele>
        <time>2023-12-17T10:36:22.000Z</time>
      </trkpt>
      <trkpt lat="-22.640687" lon="-47.043354">
        <ele>601.923532</ele>
        <time>2023-12-17T10:36:22.000Z</time>
      </trkpt>
      <trkpt lat="-22.640732" lon="-47.043461">
        <ele>601.719876</ele>
        <time>2023-12-17T10:36:23.000Z</time>
      </trkpt>
      <trkpt lat="-22.640771" lon="-47.043554">
        <ele>601.545278</ele>
        <time>2023-12-17T10:36:24.000Z</time>
      </trkpt>
      <trkpt lat="-22.641009" lon="-47.044033">
        <ele>600.693175</ele>
        <time>2023-12-17T10:36:30.000Z</time>
      </trkpt>
      <trkpt lat="-22.641223" lon="-47.044559">
        <ele>599.968888</ele>
        <time>2023-12-17T10:36:36.000Z</time>
      </trkpt>
      <trkpt lat="-22.641247" lon="-47.044707">
        <ele>599.798928</ele>
        <time>2023-12-17T10:36:38.000Z</time>
      </trkpt>
      <trkpt lat="-22.641214" lon="-47.044845">
        <ele>599.615657</ele>
        <time>2023-12-17T10:36:39.000Z</time>
      </trkpt>
      <trkpt lat="-22.639963" lon="-47.046057">
        <ele>597.335327</ele>
        <time>2023-12-17T10:36:58.000Z</time>
      </trkpt>
      <trkpt lat="-22.639829" lon="-47.046278">
        <ele>596.973809</ele>
        <time>2023-12-17T10:37:01.000Z</time>
      </trkpt>
      <trkpt lat="-22.639265" lon="-47.047411">
        <ele>595.805976</ele>
        <time>2023-12-17T10:37:14.000Z</time>
      </trkpt>
      <trkpt lat="-22.638717" lon="-47.048708">
        <ele>594.887472749</ele>
        <time>2023-12-17T10:37:29.000Z</time>
      </trkpt>
      <trkpt lat="-22.63871" lon="-47.048735">
        <ele>594.869414237</ele>
        <time>2023-12-17T10:37:29.000Z</time>
      </trkpt>
      <trkpt lat="-22.638594" lon="-47.049061">
        <ele>594.644438682</ele>
        <time>2023-12-17T10:37:33.000Z</time>
      </trkpt>
      <trkpt lat="-22.63842" lon="-47.049632">
        <ele>594.257242619</ele>
        <time>2023-12-17T10:37:39.000Z</time>
      </trkpt>
      <trkpt lat="-22.638348" lon="-47.050014">
        <ele>594.006191044</ele>
        <time>2023-12-17T10:37:43.000Z</time>
      </trkpt>
    </trkseg>
  </trk>
</gpx>

<!--
Performance optimized by W3 Total Cache. Learn more: https://www.boldgrid.com/w3-total-cache/?utm_source=w3tc&utm_medium=footer_comment&utm_campaign=free_plugin

Page Caching using Disk: Enhanced{w3tc_pagecache_reject_reason} 

Served from: www.aquabike.world @ 2026-05-10 12:22:30 by W3 Total Cache
-->